createdAt,value
2018-11-22T00:00:24.679Z,4.88
2018-11-22T00:02:55.026Z,4.98
2018-11-22T00:05:23.928Z,4.89
2018-11-22T00:08:02.618Z,4.82
2018-11-22T00:10:32.608Z,4.92
2018-11-22T00:13:01.533Z,5.05
2018-11-22T00:15:30.465Z,5.17
2018-11-22T00:18:00.018Z,5.13
2018-11-22T00:20:29.304Z,5.23
2018-11-22T00:22:58.233Z,4.89
2018-11-22T00:25:27.143Z,4.97
2018-11-22T00:27:56.065Z,5.01
2018-11-22T00:30:26.312Z,4.99
2018-11-22T00:32:55.237Z,4.96
2018-11-22T00:35:24.217Z,5.08
2018-11-22T00:37:53.585Z,5.00
2018-11-22T00:40:23.988Z,5.18
2018-11-22T00:42:53.138Z,4.88
2018-11-22T00:45:26.481Z,5.05
2018-11-22T00:47:55.881Z,5.13
2018-11-22T00:50:24.812Z,5.25
2018-11-22T00:52:53.823Z,5.14
2018-11-22T00:55:24.273Z,5.16
2018-11-22T00:57:53.915Z,5.03
2018-11-22T01:00:24.254Z,5.21
2018-11-22T01:02:53.208Z,5.06
2018-11-22T01:05:23.257Z,5.08
2018-11-22T01:07:52.198Z,5.28
2018-11-22T01:10:22.465Z,5.24
2018-11-22T01:12:52.919Z,5.20
2018-11-22T01:15:21.861Z,5.36
2018-11-22T01:17:50.785Z,5.24
2018-11-22T01:20:21.204Z,5.26
2018-11-22T01:22:51.087Z,5.16
2018-11-22T01:25:20.713Z,5.17
2018-11-22T01:27:49.664Z,5.29
2018-11-22T01:30:19.950Z,5.27
2018-11-22T01:32:50.121Z,5.20
2018-11-22T01:35:20.059Z,5.12
2018-11-22T01:37:49.241Z,5.06
2018-11-22T12:17:42.867Z,6.16
2018-11-22T12:20:12.687Z,6.05
2018-11-22T12:22:43.140Z,6.20
2018-11-22T12:25:14.548Z,6.24
2018-11-22T12:27:44.433Z,6.60
2018-11-22T12:30:15.911Z,6.59
2018-11-22T12:32:46.755Z,6.76
2018-11-22T12:35:21.040Z,6.81
2018-11-22T12:37:55.343Z,6.52
2018-11-22T12:40:24.262Z,6.68
2018-11-22T12:42:53.211Z,6.75
2018-11-22T12:45:22.134Z,6.89
2018-11-22T12:47:51.092Z,6.76
2018-11-22T12:50:20.016Z,7.01
2018-11-22T12:52:48.971Z,6.86
2018-11-22T12:55:17.898Z,6.82
2018-11-22T12:57:46.838Z,6.72
2018-11-22T13:00:16.820Z,6.97
2018-11-22T13:02:45.838Z,7.23
2018-11-22T13:05:16.031Z,7.15
2018-11-22T13:07:45.058Z,6.97
2018-11-22T13:10:15.267Z,6.97
2018-11-22T13:12:45.392Z,6.83
2018-11-22T13:15:15.714Z,6.66
2018-11-22T13:17:44.704Z,6.67
2018-11-22T13:20:15.007Z,6.83
2018-11-22T13:22:43.930Z,6.79
2018-11-22T13:25:16.579Z,6.64
2018-11-22T13:27:45.538Z,6.74
2018-11-22T13:30:16.599Z,6.82
2018-11-22T13:32:46.227Z,6.73
2018-11-22T13:35:16.050Z,6.72
2018-11-22T13:37:46.163Z,6.62
2018-11-22T13:40:15.086Z,6.70
2018-11-22T13:42:44.752Z,6.70
2018-11-22T13:45:15.690Z,6.67
2018-11-22T13:47:45.702Z,6.75
2018-11-22T13:50:18.290Z,6.88
2018-11-22T13:52:48.590Z,6.92
2018-11-22T13:55:17.518Z,7.04
2018-11-22T13:57:46.461Z,6.93
2018-11-22T14:00:18.682Z,6.93
2018-11-22T14:02:49.195Z,6.91
2018-11-22T14:05:18.119Z,6.77
2018-11-22T14:07:47.063Z,6.92
2018-11-22T14:10:17.478Z,7.01
2018-11-22T14:12:46.409Z,7.04
2018-11-22T14:15:23.147Z,7.07
2018-11-22T14:17:53.671Z,7.14
2018-11-22T14:20:24.199Z,7.17
2018-11-22T14:22:53.145Z,7.18
2018-11-22T14:25:22.103Z,7.23
2018-11-22T14:27:51.592Z,7.17
2018-11-22T14:30:21.881Z,7.18
2018-11-22T14:32:51.619Z,7.22
2018-11-22T14:35:21.307Z,7.28
2018-11-22T14:37:50.218Z,7.26
2018-11-22T14:40:20.507Z,7.33
2018-11-22T14:42:50.136Z,7.35
2018-11-22T14:45:19.067Z,7.23
2018-11-22T14:47:49.142Z,7.12
2018-11-22T14:50:22.957Z,7.15
2018-11-22T14:52:55.511Z,7.10
2018-11-22T14:55:24.415Z,7.03
2018-11-22T14:57:53.330Z,7.09
2018-11-22T15:00:22.238Z,7.07
2018-11-22T15:02:51.130Z,6.75
2018-11-22T15:05:20.054Z,6.84
2018-11-22T15:07:48.945Z,6.76
2018-11-22T15:10:17.931Z,6.90
2018-11-22T15:12:47.688Z,6.81
2018-11-22T15:15:19.422Z,6.88
2018-11-22T15:17:48.323Z,6.92
2018-11-22T15:20:18.543Z,6.83
2018-11-22T15:22:48.225Z,6.74
2018-11-22T15:25:18.789Z,6.62
2018-11-22T15:27:47.706Z,6.42
2018-11-22T15:30:18.087Z,6.49
2018-11-22T15:32:46.974Z,6.56
2018-11-22T15:35:17.185Z,6.56
2018-11-22T15:37:46.375Z,6.58
2018-11-22T15:40:17.546Z,6.43
2018-11-22T15:42:48.481Z,6.64
2018-11-22T15:45:17.886Z,6.66
2018-11-22T15:47:47.058Z,6.58
2018-11-22T15:50:18.301Z,6.57
2018-11-22T15:52:47.245Z,6.55
2018-11-22T15:55:21.056Z,6.61
2018-11-22T15:57:47.216Z,6.52
2018-11-22T16:00:20.051Z,6.75
2018-11-22T16:02:49.412Z,6.65
2018-11-22T16:05:19.034Z,6.68
2018-11-22T16:07:47.964Z,6.60
2018-11-22T16:10:26.362Z,6.79
2018-11-22T16:12:50.318Z,7.67
2018-11-22T16:15:52.375Z,7.48
2018-11-22T16:18:21.278Z,7.19
2018-11-22T16:20:50.228Z,7.15
2018-11-22T16:23:19.142Z,7.12
2018-11-22T16:25:48.158Z,7.11
2018-11-22T16:28:17.102Z,7.15
2018-11-22T16:30:46.055Z,7.14
2018-11-22T16:33:14.969Z,7.23
2018-11-22T16:35:43.906Z,7.37
2018-11-22T16:38:12.865Z,7.46
2018-11-22T16:40:41.791Z,7.44
2018-11-22T16:43:10.766Z,7.28
2018-11-22T16:45:39.879Z,7.31
2018-11-22T16:48:10.901Z,7.15
2018-11-22T16:50:40.779Z,6.94
2018-11-22T16:53:10.758Z,6.86
2018-11-22T16:55:39.752Z,6.79
2018-11-22T16:58:08.995Z,6.86
2018-11-22T17:00:39.040Z,6.89
2018-11-22T17:03:09.835Z,6.96
2018-11-22T17:05:38.971Z,6.85
2018-11-22T17:08:08.550Z,6.83
2018-11-22T17:10:37.906Z,6.81
2018-11-22T17:13:07.098Z,6.75
2018-11-22T17:15:37.470Z,6.65
2018-11-22T17:18:07.622Z,6.63
2018-11-22T17:20:36.563Z,6.44
2018-11-22T17:23:06.086Z,6.46
2018-11-22T17:25:35.832Z,6.66
2018-11-22T17:28:06.227Z,6.45
2018-11-22T17:30:37.471Z,6.58
2018-11-22T17:33:06.452Z,6.66
2018-11-22T17:35:35.379Z,6.50
2018-11-22T17:38:05.653Z,6.52
2018-11-22T17:40:37.132Z,6.63
2018-11-22T17:43:06.648Z,6.80
2018-11-22T17:45:51.182Z,6.85
2018-11-22T17:48:20.098Z,6.80
2018-11-22T17:50:49.494Z,6.71
2018-11-22T17:53:18.394Z,6.72
2018-11-22T17:55:47.366Z,6.80
2018-11-22T17:58:16.628Z,6.79
2018-11-22T18:00:48.445Z,6.61
2018-11-22T18:03:17.401Z,6.53
2018-11-22T18:05:46.402Z,6.48
2018-11-22T18:08:15.519Z,6.61
2018-11-22T18:10:44.696Z,6.45
2018-11-22T18:13:13.599Z,6.26
2018-11-22T18:15:47.771Z,6.26
2018-11-22T18:18:16.698Z,6.13
2018-11-22T18:20:45.727Z,6.23
2018-11-22T18:23:14.642Z,6.14
2018-11-22T18:25:44.007Z,6.24
2018-11-22T18:28:12.513Z,6.44
2018-11-22T18:30:41.450Z,6.51
2018-11-22T18:33:10.469Z,6.54
2018-11-22T18:35:39.394Z,6.49
2018-11-22T18:38:08.340Z,6.48
2018-11-22T18:40:38.830Z,6.44
2018-11-22T18:43:07.739Z,6.47
2018-11-22T18:45:39.066Z,6.48
2018-11-22T18:48:09.283Z,6.32
2018-11-22T18:50:38.810Z,6.45
2018-11-22T18:53:07.826Z,6.46
2018-11-22T18:55:36.757Z,6.45
2018-11-22T18:58:06.146Z,6.60
2018-11-22T19:00:36.475Z,6.62
2018-11-22T19:03:07.467Z,6.60
2018-11-22T19:05:36.522Z,6.65
2018-11-22T19:08:05.774Z,6.72
2018-11-22T19:10:36.031Z,6.71
2018-11-22T19:13:06.405Z,6.67
2018-11-22T19:15:37.013Z,6.62
2018-11-22T19:18:06.736Z,6.59
2018-11-22T19:20:37.378Z,6.58
2018-11-22T19:23:07.670Z,6.59
2018-11-22T19:25:37.026Z,6.54
2018-11-22T19:28:06.923Z,6.52
2018-11-22T19:30:38.262Z,6.51
2018-11-22T19:33:08.591Z,6.54
2018-11-22T19:35:39.462Z,6.64
2018-11-22T19:38:08.420Z,6.75
2018-11-22T19:40:38.475Z,6.82
2018-11-22T19:43:08.337Z,6.75
2018-11-22T19:45:38.610Z,6.63
2018-11-22T19:48:07.724Z,6.77
2018-11-22T19:50:36.703Z,6.84
2018-11-22T19:53:07.239Z,7.02
2018-11-22T19:58:25.883Z,7.08
2018-11-22T20:00:54.804Z,7.09
2018-11-22T20:03:23.721Z,7.10
2018-11-22T20:05:52.659Z,7.08
2018-11-22T20:08:21.594Z,7.04
2018-11-22T20:10:50.811Z,7.03
2018-11-22T20:13:19.865Z,7.09
2018-11-22T20:15:48.809Z,7.14
2018-11-22T20:18:17.744Z,7.17
2018-11-22T20:20:49.915Z,7.26
2018-11-22T20:23:21.582Z,7.36
2018-11-22T20:25:44.538Z,7.37
2018-11-22T20:28:13.494Z,7.37
2018-11-22T20:30:43.910Z,7.36
2018-11-22T20:33:12.852Z,7.45
2018-11-22T20:35:41.778Z,7.43
2018-11-22T20:38:10.711Z,7.41
2018-11-22T20:40:39.619Z,7.35
2018-11-22T20:43:09.434Z,7.23
2018-11-22T20:45:40.934Z,7.26
2018-11-22T20:48:07.384Z,7.37
2018-11-22T20:50:36.779Z,7.24
2018-11-22T20:53:06.742Z,7.26
2018-11-22T20:55:36.875Z,7.11
2018-11-22T20:58:06.551Z,7.16
2018-11-22T21:00:39.728Z,7.12
2018-11-22T21:03:09.707Z,6.95
2018-11-22T21:05:39.249Z,6.89
2018-11-22T21:08:08.927Z,6.85
2018-11-22T21:10:38.405Z,6.88
2018-11-22T21:13:07.923Z,6.73
2018-11-22T21:15:37.692Z,6.62
2018-11-22T21:18:08.267Z,6.58
2018-11-22T21:20:39.124Z,6.40
2018-11-22T21:23:08.771Z,6.32
2018-11-22T21:25:38.301Z,6.21
2018-11-22T21:28:08.092Z,6.23
2018-11-22T21:30:39.124Z,6.24
2018-11-22T21:33:09.038Z,6.36
2018-11-22T21:35:38.031Z,6.34
2018-11-22T21:38:07.934Z,6.33
2018-11-22T21:40:36.926Z,6.60
2018-11-22T21:43:05.961Z,6.44
2018-11-22T21:45:35.390Z,6.52
2018-11-22T21:48:04.326Z,6.52
2018-11-22T21:50:33.279Z,6.61
2018-11-22T21:53:02.282Z,6.63
2018-11-22T21:55:31.413Z,6.49
2018-11-22T21:58:01.599Z,6.60
2018-11-22T22:00:36.297Z,6.68
2018-11-22T22:03:07.035Z,6.75
2018-11-22T22:05:36.211Z,6.75
2018-11-22T22:08:05.265Z,6.88
2018-11-22T22:10:34.193Z,6.94
2018-11-22T22:13:03.247Z,7.01
2018-11-22T22:15:33.410Z,7.02
2018-11-22T22:18:02.422Z,7.15
2018-11-22T22:20:32.754Z,7.10
2018-11-22T22:23:01.691Z,6.96
2018-11-22T22:25:30.701Z,6.95
2018-11-22T22:28:00.122Z,6.91
2018-11-22T22:30:30.434Z,6.82
2018-11-22T22:33:00.869Z,6.89
2018-11-22T22:35:29.803Z,6.81
2018-11-22T22:37:58.762Z,6.81
2018-11-22T22:40:28.538Z,6.89
2018-11-22T22:42:58.394Z,6.94
2018-11-22T22:45:28.479Z,6.90
2018-11-22T22:47:57.431Z,6.95
2018-11-22T22:50:27.388Z,6.80
2018-11-22T22:52:57.400Z,6.77
2018-11-22T22:55:26.611Z,6.94
2018-11-22T22:57:55.522Z,6.90
2018-11-22T23:00:30.672Z,6.95
2018-11-22T23:03:01.967Z,7.04
2018-11-22T23:05:31.369Z,7.02
2018-11-22T23:08:00.307Z,6.94
2018-11-22T23:10:29.234Z,6.93
2018-11-22T23:12:59.046Z,6.93
2018-11-22T23:15:28.871Z,6.97
2018-11-22T23:17:57.799Z,6.97
2018-11-22T23:20:30.963Z,6.93
2018-11-22T23:22:59.858Z,6.88
2018-11-22T23:25:29.467Z,6.86
2018-11-22T23:27:58.423Z,6.75
2018-11-22T23:30:29.703Z,6.66
2018-11-22T23:33:00.114Z,6.63
2018-11-22T23:35:29.027Z,6.65
2018-11-22T23:37:58.603Z,6.70
2018-11-22T23:40:28.734Z,6.82
2018-11-22T23:42:57.643Z,6.93
2018-11-22T23:45:27.930Z,6.92
2018-11-22T23:47:56.874Z,6.91
2018-11-22T23:50:27.230Z,7.00
2018-11-22T23:52:57.146Z,7.03
2018-11-22T23:55:26.091Z,7.11
2018-11-22T23:57:55.018Z,7.16
